KILE/ILE METAR and TAF weather

Enter ICAO airport designator
Station Type Date Time Source
KILE METAR 2024/04/18 07:56 UTC NOAA

KILE 180756Z AUTO 15004KT 10SM SCT018 21/21 A2991 RMK AO2 SLP118 T02110211


Station Type Date Time Source
KILE Decoded METAR 2024/04/18 07:56 UTC NOAA

Killeen, Skylark Field Airport, TX, United States (KILE) 31-05N 097-41W
Apr 18, 2024 - 03:56 AM EDT / 2024.04.18 0756 UTC
Wind: from the SSE (150 degrees) at 5 MPH (4 KT):0
Visibility: 10 mile(s):0
Sky conditions: partly cloudy
Temperature: 70.0 F (21.1 C)
Dew Point: 70.0 F (21.1 C)
Relative Humidity: 100%
Pressure (altimeter): 29.91 in. Hg (1012 hPa)
ob: KILE 180756Z AUTO 15004KT 10SM SCT018 21/21 A2991 RMK AO2 SLP118 T02110211
cycle: 8

Station Type Date Time Source
KILE TAF UTC NOAA

Error!

Example: see airport list